sensor_id;sensor_type;location;lat;lon;timestamp;P1;durP1;ratioP1;P2;durP2;ratioP2
73693;SDS011;61997;53.974;11.670;2022-10-15T00:00:43;21.60;;;14.95;;
73693;SDS011;61997;53.974;11.670;2022-10-15T00:03:10;24.15;;;14.95;;
73693;SDS011;61997;53.974;11.670;2022-10-15T00:05:38;21.75;;;13.85;;
73693;SDS011;61997;53.974;11.670;2022-10-15T00:08:05;24.50;;;15.73;;
73693;SDS011;61997;53.974;11.670;2022-10-15T00:10:33;22.92;;;15.18;;
73693;SDS011;61997;53.974;11.670;2022-10-15T00:12:59;23.27;;;15.05;;
73693;SDS011;61997;53.974;11.670;2022-10-15T00:15:24;21.75;;;14.05;;
73693;SDS011;61997;53.974;11.670;2022-10-15T00:17:50;22.48;;;14.60;;
73693;SDS011;61997;53.974;11.670;2022-10-15T00:20:15;20.70;;;13.55;;
73693;SDS011;61997;53.974;11.670;2022-10-15T00:22:42;20.65;;;13.88;;
73693;SDS011;61997;53.974;11.670;2022-10-15T00:25:08;22.65;;;14.10;;
73693;SDS011;61997;53.974;11.670;2022-10-15T00:27:34;22.08;;;14.18;;
73693;SDS011;61997;53.974;11.670;2022-10-15T00:30:00;18.80;;;13.20;;
73693;SDS011;61997;53.974;11.670;2022-10-15T00:32:28;24.02;;;15.07;;
73693;SDS011;61997;53.974;11.670;2022-10-15T00:34:55;21.48;;;13.82;;
73693;SDS011;61997;53.974;11.670;2022-10-15T00:37:22;19.15;;;12.80;;
73693;SDS011;61997;53.974;11.670;2022-10-15T00:39:48;20.73;;;13.70;;
73693;SDS011;61997;53.974;11.670;2022-10-15T00:42:13;20.95;;;14.20;;
73693;SDS011;61997;53.974;11.670;2022-10-15T00:49:39;20.27;;;12.68;;
73693;SDS011;61997;53.974;11.670;2022-10-15T00:52:13;20.00;;;13.13;;
73693;SDS011;61997;53.974;11.670;2022-10-15T00:54:51;21.25;;;13.85;;
73693;SDS011;61997;53.974;11.670;2022-10-15T00:57:18;23.08;;;12.85;;
73693;SDS011;61997;53.974;11.670;2022-10-15T00:59:46;18.83;;;13.07;;
73693;SDS011;61997;53.974;11.670;2022-10-15T01:02:14;20.05;;;12.75;;
73693;SDS011;61997;53.974;11.670;2022-10-15T01:04:42;20.80;;;13.35;;
73693;SDS011;61997;53.974;11.670;2022-10-15T01:07:10;20.38;;;12.40;;
73693;SDS011;61997;53.974;11.670;2022-10-15T01:09:35;20.20;;;13.00;;
73693;SDS011;61997;53.974;11.670;2022-10-15T01:12:01;18.63;;;12.68;;
73693;SDS011;61997;53.974;11.670;2022-10-15T01:15:11;19.60;;;12.82;;
73693;SDS011;61997;53.974;11.670;2022-10-15T01:17:44;19.17;;;12.48;;
73693;SDS011;61997;53.974;11.670;2022-10-15T01:28:47;19.33;;;12.55;;
73693;SDS011;61997;53.974;11.670;2022-10-15T01:31:43;17.55;;;12.35;;
73693;SDS011;61997;53.974;11.670;2022-10-15T01:36:59;18.90;;;11.90;;
73693;SDS011;61997;53.974;11.670;2022-10-15T01:39:45;16.30;;;11.95;;
73693;SDS011;61997;53.974;11.670;2022-10-15T01:45:33;17.08;;;11.65;;
73693;SDS011;61997;53.974;11.670;2022-10-15T01:48:04;19.00;;;11.60;;
73693;SDS011;61997;53.974;11.670;2022-10-15T01:50:33;16.58;;;11.85;;
73693;SDS011;61997;53.974;11.670;2022-10-15T01:53:00;18.23;;;11.35;;
73693;SDS011;61997;53.974;11.670;2022-10-15T01:55:29;18.10;;;10.95;;
73693;SDS011;61997;53.974;11.670;2022-10-15T01:57:55;18.75;;;11.27;;
73693;SDS011;61997;53.974;11.670;2022-10-15T02:00:22;18.45;;;11.40;;
73693;SDS011;61997;53.974;11.670;2022-10-15T02:02:48;18.60;;;11.20;;
73693;SDS011;61997;53.974;11.670;2022-10-15T02:05:19;17.13;;;11.70;;
73693;SDS011;61997;53.974;11.670;2022-10-15T02:07:54;16.40;;;10.95;;
73693;SDS011;61997;53.974;11.670;2022-10-15T02:10:29;16.25;;;10.63;;
73693;SDS011;61997;53.974;11.670;2022-10-15T02:21:41;16.63;;;10.30;;
73693;SDS011;61997;53.974;11.670;2022-10-15T02:24:14;14.18;;;9.52;;
73693;SDS011;61997;53.974;11.670;2022-10-15T02:26:44;16.45;;;10.65;;
73693;SDS011;61997;53.974;11.670;2022-10-15T02:29:10;16.83;;;10.00;;
73693;SDS011;61997;53.974;11.670;2022-10-15T02:31:38;14.90;;;9.27;;
73693;SDS011;61997;53.974;11.670;2022-10-15T02:34:06;15.48;;;9.80;;
73693;SDS011;61997;53.974;11.670;2022-10-15T02:36:33;14.38;;;10.85;;
73693;SDS011;61997;53.974;11.670;2022-10-15T02:39:00;16.08;;;10.35;;
73693;SDS011;61997;53.974;11.670;2022-10-15T02:41:29;16.65;;;10.55;;
73693;SDS011;61997;53.974;11.670;2022-10-15T02:43:58;15.02;;;9.77;;
73693;SDS011;61997;53.974;11.670;2022-10-15T02:46:23;15.73;;;9.68;;
73693;SDS011;61997;53.974;11.670;2022-10-15T02:48:48;16.92;;;10.13;;
73693;SDS011;61997;53.974;11.670;2022-10-15T02:51:14;17.30;;;10.18;;
73693;SDS011;61997;53.974;11.670;2022-10-15T02:53:39;12.23;;;8.95;;
73693;SDS011;61997;53.974;11.670;2022-10-15T02:56:05;15.23;;;10.32;;
73693;SDS011;61997;53.974;11.670;2022-10-15T02:58:30;15.68;;;9.85;;
73693;SDS011;61997;53.974;11.670;2022-10-15T03:00:55;16.23;;;9.68;;
73693;SDS011;61997;53.974;11.670;2022-10-15T03:03:21;15.30;;;9.95;;
73693;SDS011;61997;53.974;11.670;2022-10-15T03:05:46;14.60;;;9.73;;
73693;SDS011;61997;53.974;11.670;2022-10-15T03:08:12;16.27;;;9.90;;
73693;SDS011;61997;53.974;11.670;2022-10-15T03:10:37;14.00;;;9.82;;
73693;SDS011;61997;53.974;11.670;2022-10-15T03:13:03;16.15;;;9.52;;
73693;SDS011;61997;53.974;11.670;2022-10-15T03:15:29;13.43;;;9.13;;
73693;SDS011;61997;53.974;11.670;2022-10-15T03:17:55;13.73;;;8.82;;
73693;SDS011;61997;53.974;11.670;2022-10-15T03:20:20;12.63;;;9.07;;
73693;SDS011;61997;53.974;11.670;2022-10-15T03:22:45;12.90;;;8.60;;
73693;SDS011;61997;53.974;11.670;2022-10-15T03:25:11;14.80;;;9.07;;
73693;SDS011;61997;53.974;11.670;2022-10-15T03:27:36;12.43;;;8.27;;
73693;SDS011;61997;53.974;11.670;2022-10-15T03:30:02;14.70;;;9.10;;
73693;SDS011;61997;53.974;11.670;2022-10-15T03:32:27;13.50;;;9.68;;
73693;SDS011;61997;53.974;11.670;2022-10-15T03:34:53;13.68;;;8.88;;
73693;SDS011;61997;53.974;11.670;2022-10-15T03:37:18;12.93;;;8.90;;
73693;SDS011;61997;53.974;11.670;2022-10-15T03:39:44;13.90;;;8.43;;
73693;SDS011;61997;53.974;11.670;2022-10-15T03:42:09;13.45;;;8.82;;
73693;SDS011;61997;53.974;11.670;2022-10-15T03:44:34;12.88;;;8.77;;
73693;SDS011;61997;53.974;11.670;2022-10-15T03:47:00;11.15;;;8.20;;
73693;SDS011;61997;53.974;11.670;2022-10-15T03:49:25;13.90;;;8.57;;
73693;SDS011;61997;53.974;11.670;2022-10-15T03:51:51;13.35;;;8.70;;
73693;SDS011;61997;53.974;11.670;2022-10-15T03:54:17;12.80;;;7.97;;
73693;SDS011;61997;53.974;11.670;2022-10-15T03:56:42;12.95;;;8.23;;
73693;SDS011;61997;53.974;11.670;2022-10-15T03:59:08;13.27;;;7.93;;
73693;SDS011;61997;53.974;11.670;2022-10-15T04:01:33;12.88;;;8.52;;
73693;SDS011;61997;53.974;11.670;2022-10-15T04:03:58;11.35;;;7.35;;
73693;SDS011;61997;53.974;11.670;2022-10-15T04:06:24;10.85;;;7.53;;
73693;SDS011;61997;53.974;11.670;2022-10-15T04:08:50;11.05;;;7.85;;
73693;SDS011;61997;53.974;11.670;2022-10-15T04:11:15;12.50;;;7.88;;
73693;SDS011;61997;53.974;11.670;2022-10-15T04:13:41;14.35;;;8.02;;
73693;SDS011;61997;53.974;11.670;2022-10-15T04:16:06;14.18;;;7.97;;
73693;SDS011;61997;53.974;11.670;2022-10-15T04:18:32;14.25;;;8.60;;
73693;SDS011;61997;53.974;11.670;2022-10-15T04:21:00;10.73;;;7.38;;
73693;SDS011;61997;53.974;11.670;2022-10-15T04:23:26;11.00;;;7.22;;
73693;SDS011;61997;53.974;11.670;2022-10-15T04:25:51;11.10;;;7.72;;
73693;SDS011;61997;53.974;11.670;2022-10-15T04:28:17;14.52;;;7.38;;
73693;SDS011;61997;53.974;11.670;2022-10-15T04:30:42;10.88;;;6.93;;
73693;SDS011;61997;53.974;11.670;2022-10-15T04:33:08;11.25;;;7.15;;
73693;SDS011;61997;53.974;11.670;2022-10-15T04:35:34;12.77;;;7.13;;
73693;SDS011;61997;53.974;11.670;2022-10-15T04:37:59;11.50;;;8.27;;
73693;SDS011;61997;53.974;11.670;2022-10-15T04:40:25;10.23;;;7.35;;
73693;SDS011;61997;53.974;11.670;2022-10-15T04:42:51;12.30;;;7.72;;
73693;SDS011;61997;53.974;11.670;2022-10-15T04:45:16;11.23;;;7.07;;
73693;SDS011;61997;53.974;11.670;2022-10-15T04:47:41;10.75;;;7.40;;
73693;SDS011;61997;53.974;11.670;2022-10-15T04:50:07;10.98;;;6.93;;
73693;SDS011;61997;53.974;11.670;2022-10-15T04:52:33;11.80;;;7.53;;
73693;SDS011;61997;53.974;11.670;2022-10-15T04:54:59;10.65;;;7.45;;
73693;SDS011;61997;53.974;11.670;2022-10-15T04:57:26;11.13;;;7.30;;
73693;SDS011;61997;53.974;11.670;2022-10-15T04:59:52;9.98;;;7.30;;
73693;SDS011;61997;53.974;11.670;2022-10-15T05:02:17;13.27;;;7.25;;
73693;SDS011;61997;53.974;11.670;2022-10-15T05:04:43;9.85;;;6.43;;
73693;SDS011;61997;53.974;11.670;2022-10-15T05:07:08;10.93;;;6.60;;
73693;SDS011;61997;53.974;11.670;2022-10-15T05:09:33;9.48;;;6.57;;
73693;SDS011;61997;53.974;11.670;2022-10-15T05:11:59;12.30;;;7.35;;
73693;SDS011;61997;53.974;11.670;2022-10-15T05:14:24;9.90;;;6.90;;
73693;SDS011;61997;53.974;11.670;2022-10-15T05:16:50;9.82;;;6.53;;
73693;SDS011;61997;53.974;11.670;2022-10-15T05:19:15;10.38;;;7.00;;
73693;SDS011;61997;53.974;11.670;2022-10-15T05:21:41;12.25;;;6.85;;
73693;SDS011;61997;53.974;11.670;2022-10-15T05:24:08;9.90;;;6.40;;
73693;SDS011;61997;53.974;11.670;2022-10-15T05:26:34;9.50;;;6.75;;
73693;SDS011;61997;53.974;11.670;2022-10-15T05:28:59;9.50;;;5.85;;
73693;SDS011;61997;53.974;11.670;2022-10-15T05:31:26;12.18;;;6.55;;
73693;SDS011;61997;53.974;11.670;2022-10-15T05:33:53;9.80;;;6.10;;
73693;SDS011;61997;53.974;11.670;2022-10-15T05:36:28;10.07;;;5.82;;
73693;SDS011;61997;53.974;11.670;2022-10-15T05:38:54;9.57;;;6.32;;
73693;SDS011;61997;53.974;11.670;2022-10-15T05:41:21;10.98;;;6.45;;
73693;SDS011;61997;53.974;11.670;2022-10-15T05:43:47;9.05;;;5.95;;
73693;SDS011;61997;53.974;11.670;2022-10-15T05:46:14;9.27;;;6.80;;
73693;SDS011;61997;53.974;11.670;2022-10-15T05:48:39;11.32;;;6.40;;
73693;SDS011;61997;53.974;11.670;2022-10-15T05:51:09;9.15;;;6.18;;
73693;SDS011;61997;53.974;11.670;2022-10-15T05:53:36;9.82;;;6.38;;
73693;SDS011;61997;53.974;11.670;2022-10-15T05:56:02;8.88;;;6.22;;
73693;SDS011;61997;53.974;11.670;2022-10-15T05:58:29;9.43;;;6.50;;
73693;SDS011;61997;53.974;11.670;2022-10-15T06:00:58;9.23;;;6.13;;
73693;SDS011;61997;53.974;11.670;2022-10-15T06:03:25;9.60;;;6.28;;
73693;SDS011;61997;53.974;11.670;2022-10-15T06:05:51;7.78;;;6.00;;
73693;SDS011;61997;53.974;11.670;2022-10-15T06:08:17;10.23;;;6.35;;
73693;SDS011;61997;53.974;11.670;2022-10-15T06:10:42;8.82;;;5.85;;
73693;SDS011;61997;53.974;11.670;2022-10-15T06:13:08;10.20;;;6.25;;
73693;SDS011;61997;53.974;11.670;2022-10-15T06:15:37;8.43;;;5.88;;
73693;SDS011;61997;53.974;11.670;2022-10-15T06:18:03;9.05;;;5.72;;
73693;SDS011;61997;53.974;11.670;2022-10-15T06:20:28;8.85;;;6.03;;
73693;SDS011;61997;53.974;11.670;2022-10-15T06:22:57;9.63;;;5.65;;
73693;SDS011;61997;53.974;11.670;2022-10-15T06:25:23;9.90;;;5.93;;
73693;SDS011;61997;53.974;11.670;2022-10-15T06:27:48;9.30;;;6.22;;
73693;SDS011;61997;53.974;11.670;2022-10-15T06:30:14;9.00;;;6.05;;
73693;SDS011;61997;53.974;11.670;2022-10-15T06:32:45;8.35;;;6.05;;
73693;SDS011;61997;53.974;11.670;2022-10-15T06:35:14;8.55;;;5.93;;
73693;SDS011;61997;53.974;11.670;2022-10-15T06:37:39;9.60;;;5.55;;
73693;SDS011;61997;53.974;11.670;2022-10-15T06:40:04;8.55;;;6.07;;
73693;SDS011;61997;53.974;11.670;2022-10-15T06:42:30;8.50;;;5.63;;
73693;SDS011;61997;53.974;11.670;2022-10-15T06:44:56;8.00;;;5.65;;
73693;SDS011;61997;53.974;11.670;2022-10-15T06:47:21;7.55;;;5.20;;
73693;SDS011;61997;53.974;11.670;2022-10-15T06:49:46;8.10;;;5.30;;
73693;SDS011;61997;53.974;11.670;2022-10-15T06:52:12;10.20;;;5.63;;
73693;SDS011;61997;53.974;11.670;2022-10-15T06:54:37;7.45;;;4.88;;
73693;SDS011;61997;53.974;11.670;2022-10-15T06:57:03;9.18;;;5.93;;
73693;SDS011;61997;53.974;11.670;2022-10-15T06:59:28;9.05;;;5.85;;
73693;SDS011;61997;53.974;11.670;2022-10-15T07:01:53;8.65;;;5.70;;
73693;SDS011;61997;53.974;11.670;2022-10-15T07:04:19;7.72;;;5.00;;
73693;SDS011;61997;53.974;11.670;2022-10-15T07:06:47;7.68;;;5.25;;
73693;SDS011;61997;53.974;11.670;2022-10-15T07:09:12;7.22;;;4.68;;
73693;SDS011;61997;53.974;11.670;2022-10-15T07:11:38;8.38;;;5.30;;
73693;SDS011;61997;53.974;11.670;2022-10-15T07:14:03;8.70;;;6.00;;
73693;SDS011;61997;53.974;11.670;2022-10-15T07:16:29;8.82;;;5.90;;
73693;SDS011;61997;53.974;11.670;2022-10-15T07:18:54;7.93;;;5.80;;
73693;SDS011;61997;53.974;11.670;2022-10-15T07:21:19;8.73;;;5.13;;
73693;SDS011;61997;53.974;11.670;2022-10-15T07:23:45;10.43;;;6.32;;
73693;SDS011;61997;53.974;11.670;2022-10-15T07:26:10;9.85;;;5.80;;
73693;SDS011;61997;53.974;11.670;2022-10-15T07:28:36;10.50;;;5.90;;
73693;SDS011;61997;53.974;11.670;2022-10-15T07:31:02;10.30;;;5.47;;
73693;SDS011;61997;53.974;11.670;2022-10-15T07:33:29;8.57;;;5.43;;
73693;SDS011;61997;53.974;11.670;2022-10-15T07:35:54;9.70;;;5.60;;
73693;SDS011;61997;53.974;11.670;2022-10-15T07:38:20;9.40;;;5.10;;
73693;SDS011;61997;53.974;11.670;2022-10-15T07:40:45;9.82;;;6.03;;
73693;SDS011;61997;53.974;11.670;2022-10-15T07:43:11;9.38;;;5.50;;
73693;SDS011;61997;53.974;11.670;2022-10-15T07:45:37;8.55;;;5.40;;
73693;SDS011;61997;53.974;11.670;2022-10-15T07:48:03;8.10;;;5.03;;
73693;SDS011;61997;53.974;11.670;2022-10-15T07:50:29;7.25;;;4.95;;
73693;SDS011;61997;53.974;11.670;2022-10-15T07:52:54;8.23;;;5.45;;
73693;SDS011;61997;53.974;11.670;2022-10-15T07:55:19;8.70;;;5.90;;
73693;SDS011;61997;53.974;11.670;2022-10-15T07:57:45;8.48;;;5.43;;
73693;SDS011;61997;53.974;11.670;2022-10-15T08:00:10;8.65;;;5.45;;
73693;SDS011;61997;53.974;11.670;2022-10-15T08:02:36;6.97;;;4.93;;
73693;SDS011;61997;53.974;11.670;2022-10-15T08:05:01;8.00;;;5.07;;
73693;SDS011;61997;53.974;11.670;2022-10-15T08:07:27;8.65;;;5.63;;
73693;SDS011;61997;53.974;11.670;2022-10-15T08:09:52;7.78;;;5.18;;
73693;SDS011;61997;53.974;11.670;2022-10-15T08:12:18;6.95;;;4.63;;
73693;SDS011;61997;53.974;11.670;2022-10-15T08:14:43;7.93;;;5.05;;
73693;SDS011;61997;53.974;11.670;2022-10-15T08:17:09;8.95;;;5.53;;
73693;SDS011;61997;53.974;11.670;2022-10-15T08:19:34;7.95;;;4.75;;
73693;SDS011;61997;53.974;11.670;2022-10-15T08:22:00;7.72;;;5.07;;
73693;SDS011;61997;53.974;11.670;2022-10-15T08:24:25;7.50;;;4.63;;
73693;SDS011;61997;53.974;11.670;2022-10-15T08:26:51;8.20;;;4.70;;
73693;SDS011;61997;53.974;11.670;2022-10-15T08:29:16;7.05;;;5.55;;
73693;SDS011;61997;53.974;11.670;2022-10-15T08:31:42;7.13;;;4.47;;
73693;SDS011;61997;53.974;11.670;2022-10-15T08:34:07;8.20;;;4.95;;
73693;SDS011;61997;53.974;11.670;2022-10-15T08:36:33;6.50;;;4.68;;
73693;SDS011;61997;53.974;11.670;2022-10-15T08:38:59;7.63;;;4.68;;
73693;SDS011;61997;53.974;11.670;2022-10-15T08:41:30;6.82;;;4.45;;
73693;SDS011;61997;53.974;11.670;2022-10-15T08:43:59;7.78;;;4.38;;
73693;SDS011;61997;53.974;11.670;2022-10-15T08:46:28;6.55;;;4.57;;
73693;SDS011;61997;53.974;11.670;2022-10-15T08:49:02;8.60;;;5.72;;
73693;SDS011;61997;53.974;11.670;2022-10-15T08:51:40;9.68;;;6.00;;
73693;SDS011;61997;53.974;11.670;2022-10-15T08:54:16;9.75;;;6.35;;
73693;SDS011;61997;53.974;11.670;2022-10-15T08:56:43;11.48;;;7.18;;
73693;SDS011;61997;53.974;11.670;2022-10-15T09:02:01;13.05;;;7.63;;
73693;SDS011;61997;53.974;11.670;2022-10-15T09:04:41;13.38;;;7.70;;
73693;SDS011;61997;53.974;11.670;2022-10-15T09:07:34;14.15;;;9.27;;
73693;SDS011;61997;53.974;11.670;2022-10-15T09:15:22;14.50;;;9.75;;
73693;SDS011;61997;53.974;11.670;2022-10-15T09:17:49;16.58;;;10.15;;
73693;SDS011;61997;53.974;11.670;2022-10-15T09:20:17;16.45;;;10.70;;
73693;SDS011;61997;53.974;11.670;2022-10-15T09:25:17;15.90;;;9.60;;
73693;SDS011;61997;53.974;11.670;2022-10-15T09:39:00;19.95;;;12.15;;
73693;SDS011;61997;53.974;11.670;2022-10-15T09:44:19;18.20;;;11.57;;
73693;SDS011;61997;53.974;11.670;2022-10-15T09:46:48;21.67;;;13.23;;
73693;SDS011;61997;53.974;11.670;2022-10-15T09:49:15;17.65;;;11.25;;
73693;SDS011;61997;53.974;11.670;2022-10-15T09:54:34;18.48;;;11.88;;
73693;SDS011;61997;53.974;11.670;2022-10-15T09:57:07;17.88;;;11.13;;
73693;SDS011;61997;53.974;11.670;2022-10-15T09:59:34;20.05;;;12.73;;
73693;SDS011;61997;53.974;11.670;2022-10-15T10:04:27;19.50;;;11.98;;
73693;SDS011;61997;53.974;11.670;2022-10-15T10:06:59;20.30;;;12.25;;
73693;SDS011;61997;53.974;11.670;2022-10-15T10:09:33;19.95;;;12.43;;
73693;SDS011;61997;53.974;11.670;2022-10-15T10:12:16;18.30;;;11.95;;
73693;SDS011;61997;53.974;11.670;2022-10-15T10:17:30;18.52;;;11.30;;
73693;SDS011;61997;53.974;11.670;2022-10-15T10:22:46;16.08;;;11.25;;
73693;SDS011;61997;53.974;11.670;2022-10-15T10:25:34;18.42;;;12.00;;
73693;SDS011;61997;53.974;11.670;2022-10-15T10:28:05;18.25;;;12.10;;
73693;SDS011;61997;53.974;11.670;2022-10-15T10:30:52;18.08;;;12.23;;
73693;SDS011;61997;53.974;11.670;2022-10-15T10:35:59;18.95;;;12.13;;
73693;SDS011;61997;53.974;11.670;2022-10-15T10:38:26;16.27;;;11.65;;
73693;SDS011;61997;53.974;11.670;2022-10-15T10:41:07;18.85;;;11.70;;
73693;SDS011;61997;53.974;11.670;2022-10-15T10:43:40;16.90;;;11.73;;
73693;SDS011;61997;53.974;11.670;2022-10-15T10:46:18;18.25;;;11.80;;
73693;SDS011;61997;53.974;11.670;2022-10-15T10:48:45;19.63;;;12.07;;
73693;SDS011;61997;53.974;11.670;2022-10-15T10:51:13;18.13;;;11.95;;
73693;SDS011;61997;53.974;11.670;2022-10-15T10:53:48;18.17;;;12.00;;
73693;SDS011;61997;53.974;11.670;2022-10-15T10:56:16;19.00;;;12.40;;
73693;SDS011;61997;53.974;11.670;2022-10-15T10:58:43;18.48;;;11.68;;
73693;SDS011;61997;53.974;11.670;2022-10-15T11:01:10;19.55;;;11.63;;
73693;SDS011;61997;53.974;11.670;2022-10-15T11:03:38;19.90;;;12.73;;
73693;SDS011;61997;53.974;11.670;2022-10-15T11:06:22;18.45;;;12.20;;
73693;SDS011;61997;53.974;11.670;2022-10-15T11:08:58;17.52;;;11.73;;
73693;SDS011;61997;53.974;11.670;2022-10-15T11:11:34;16.33;;;11.85;;
73693;SDS011;61997;53.974;11.670;2022-10-15T11:16:52;16.10;;;11.23;;
73693;SDS011;61997;53.974;11.670;2022-10-15T11:19:33;19.45;;;12.35;;
73693;SDS011;61997;53.974;11.670;2022-10-15T11:24:40;19.80;;;12.15;;
73693;SDS011;61997;53.974;11.670;2022-10-15T11:55:46;21.63;;;13.63;;
73693;SDS011;61997;53.974;11.670;2022-10-15T11:58:32;22.77;;;14.27;;
73693;SDS011;61997;53.974;11.670;2022-10-15T12:00:59;22.75;;;14.50;;
73693;SDS011;61997;53.974;11.670;2022-10-15T12:03:29;24.95;;;14.52;;
73693;SDS011;61997;53.974;11.670;2022-10-15T12:06:02;22.50;;;14.50;;
73693;SDS011;61997;53.974;11.670;2022-10-15T12:08:30;24.65;;;14.35;;
73693;SDS011;61997;53.974;11.670;2022-10-15T12:11:04;22.75;;;15.00;;
73693;SDS011;61997;53.974;11.670;2022-10-15T12:16:43;19.90;;;14.65;;
73693;SDS011;61997;53.974;11.670;2022-10-15T12:19:33;25.08;;;15.18;;
73693;SDS011;61997;53.974;11.670;2022-10-15T12:22:04;22.60;;;15.00;;
73693;SDS011;61997;53.974;11.670;2022-10-15T12:27:24;25.33;;;15.73;;
73693;SDS011;61997;53.974;11.670;2022-10-15T12:32:41;25.30;;;16.20;;
73693;SDS011;61997;53.974;11.670;2022-10-15T12:37:39;23.13;;;15.40;;
73693;SDS011;61997;53.974;11.670;2022-10-15T12:40:47;24.08;;;17.02;;
73693;SDS011;61997;53.974;11.670;2022-10-15T12:43:00;25.67;;;16.00;;
73693;SDS011;61997;53.974;11.670;2022-10-15T12:50:28;27.40;;;16.88;;
73693;SDS011;61997;53.974;11.670;2022-10-15T12:58:34;22.27;;;15.73;;
73693;SDS011;61997;53.974;11.670;2022-10-15T13:11:49;22.35;;;15.75;;
73693;SDS011;61997;53.974;11.670;2022-10-15T13:16:50;23.38;;;15.25;;
73693;SDS011;61997;53.974;11.670;2022-10-15T13:19:23;25.23;;;15.82;;
73693;SDS011;61997;53.974;11.670;2022-10-15T13:21:54;25.05;;;16.60;;
73693;SDS011;61997;53.974;11.670;2022-10-15T13:24:22;22.73;;;14.82;;
73693;SDS011;61997;53.974;11.670;2022-10-15T13:26:49;23.38;;;15.38;;
73693;SDS011;61997;53.974;11.670;2022-10-15T13:29:19;24.80;;;14.98;;
73693;SDS011;61997;53.974;11.670;2022-10-15T13:31:46;22.40;;;15.00;;
73693;SDS011;61997;53.974;11.670;2022-10-15T13:34:29;24.70;;;15.20;;
73693;SDS011;61997;53.974;11.670;2022-10-15T13:36:56;22.33;;;14.65;;
73693;SDS011;61997;53.974;11.670;2022-10-15T13:42:16;22.58;;;14.93;;
73693;SDS011;61997;53.974;11.670;2022-10-15T13:52:40;20.00;;;14.30;;
73693;SDS011;61997;53.974;11.670;2022-10-15T13:55:29;20.73;;;13.77;;
73693;SDS011;61997;53.974;11.670;2022-10-15T13:58:02;22.38;;;14.15;;
73693;SDS011;61997;53.974;11.670;2022-10-15T14:00:32;22.27;;;14.68;;
73693;SDS011;61997;53.974;11.670;2022-10-15T14:03:06;23.63;;;15.10;;
73693;SDS011;61997;53.974;11.670;2022-10-15T14:05:38;20.83;;;14.50;;
73693;SDS011;61997;53.974;11.670;2022-10-15T14:08:04;21.77;;;14.23;;
73693;SDS011;61997;53.974;11.670;2022-10-15T14:10:29;25.00;;;14.82;;
73693;SDS011;61997;53.974;11.670;2022-10-15T14:12:55;22.33;;;14.48;;
73693;SDS011;61997;53.974;11.670;2022-10-15T14:15:40;23.25;;;14.77;;
73693;SDS011;61997;53.974;11.670;2022-10-15T14:18:11;22.83;;;14.98;;
73693;SDS011;61997;53.974;11.670;2022-10-15T14:20:41;24.70;;;14.95;;
73693;SDS011;61997;53.974;11.670;2022-10-15T14:23:13;22.17;;;14.38;;
73693;SDS011;61997;53.974;11.670;2022-10-15T14:25:41;22.15;;;15.40;;
73693;SDS011;61997;53.974;11.670;2022-10-15T14:28:15;21.45;;;14.43;;
73693;SDS011;61997;53.974;11.670;2022-10-15T14:30:44;27.05;;;14.90;;
73693;SDS011;61997;53.974;11.670;2022-10-15T14:36:04;23.45;;;14.70;;
73693;SDS011;61997;53.974;11.670;2022-10-15T14:38:50;24.33;;;16.15;;
73693;SDS011;61997;53.974;11.670;2022-10-15T14:41:23;24.20;;;16.15;;
73693;SDS011;61997;53.974;11.670;2022-10-15T14:46:44;26.17;;;16.27;;
73693;SDS011;61997;53.974;11.670;2022-10-15T14:49:54;23.90;;;15.93;;
73693;SDS011;61997;53.974;11.670;2022-10-15T14:52:03;24.83;;;15.93;;
73693;SDS011;61997;53.974;11.670;2022-10-15T14:54:33;25.02;;;14.95;;
73693;SDS011;61997;53.974;11.670;2022-10-15T14:57:02;24.08;;;15.25;;
73693;SDS011;61997;53.974;11.670;2022-10-15T14:59:29;24.13;;;16.63;;
73693;SDS011;61997;53.974;11.670;2022-10-15T15:01:58;25.38;;;15.93;;
73693;SDS011;61997;53.974;11.670;2022-10-15T15:04:31;23.17;;;15.25;;
73693;SDS011;61997;53.974;11.670;2022-10-15T15:06:58;24.95;;;16.52;;
73693;SDS011;61997;53.974;11.670;2022-10-15T15:09:24;23.13;;;14.93;;
73693;SDS011;61997;53.974;11.670;2022-10-15T15:11:49;20.30;;;14.43;;
73693;SDS011;61997;53.974;11.670;2022-10-15T15:14:21;21.00;;;14.68;;
73693;SDS011;61997;53.974;11.670;2022-10-15T15:16:49;22.40;;;15.18;;
73693;SDS011;61997;53.974;11.670;2022-10-15T15:19:15;23.40;;;14.82;;
73693;SDS011;61997;53.974;11.670;2022-10-15T15:21:40;21.83;;;13.80;;
73693;SDS011;61997;53.974;11.670;2022-10-15T15:24:08;23.83;;;14.57;;
73693;SDS011;61997;53.974;11.670;2022-10-15T15:26:34;23.13;;;14.88;;
73693;SDS011;61997;53.974;11.670;2022-10-15T15:29:00;23.38;;;14.60;;
73693;SDS011;61997;53.974;11.670;2022-10-15T15:31:26;22.08;;;13.32;;
73693;SDS011;61997;53.974;11.670;2022-10-15T15:33:53;20.92;;;14.05;;
73693;SDS011;61997;53.974;11.670;2022-10-15T15:36:18;20.88;;;13.02;;
73693;SDS011;61997;53.974;11.670;2022-10-15T15:38:43;21.80;;;14.18;;
73693;SDS011;61997;53.974;11.670;2022-10-15T15:41:16;20.25;;;13.45;;
73693;SDS011;61997;53.974;11.670;2022-10-15T15:43:45;20.00;;;13.10;;
73693;SDS011;61997;53.974;11.670;2022-10-15T15:46:11;18.30;;;12.80;;
73693;SDS011;61997;53.974;11.670;2022-10-15T15:48:37;23.58;;;13.45;;
73693;SDS011;61997;53.974;11.670;2022-10-15T15:51:04;20.20;;;13.23;;
73693;SDS011;61997;53.974;11.670;2022-10-15T15:53:31;18.17;;;12.65;;
73693;SDS011;61997;53.974;11.670;2022-10-15T15:55:57;20.58;;;13.15;;
73693;SDS011;61997;53.974;11.670;2022-10-15T15:58:22;22.05;;;13.30;;
73693;SDS011;61997;53.974;11.670;2022-10-15T16:00:47;18.48;;;12.45;;
73693;SDS011;61997;53.974;11.670;2022-10-15T16:03:13;22.65;;;13.40;;
73693;SDS011;61997;53.974;11.670;2022-10-15T16:05:39;17.42;;;12.60;;
73693;SDS011;61997;53.974;11.670;2022-10-15T16:08:05;20.38;;;12.65;;
73693;SDS011;61997;53.974;11.670;2022-10-15T16:10:31;18.70;;;12.82;;
73693;SDS011;61997;53.974;11.670;2022-10-15T16:12:57;20.48;;;13.43;;
73693;SDS011;61997;53.974;11.670;2022-10-15T16:15:23;18.80;;;12.50;;
73693;SDS011;61997;53.974;11.670;2022-10-15T16:17:48;19.88;;;13.77;;
73693;SDS011;61997;53.974;11.670;2022-10-15T16:20:13;21.55;;;12.85;;
73693;SDS011;61997;53.974;11.670;2022-10-15T16:22:39;21.52;;;13.55;;
73693;SDS011;61997;53.974;11.670;2022-10-15T16:25:05;20.00;;;12.18;;
73693;SDS011;61997;53.974;11.670;2022-10-15T16:27:31;20.52;;;12.85;;
73693;SDS011;61997;53.974;11.670;2022-10-15T16:29:58;19.30;;;12.57;;
73693;SDS011;61997;53.974;11.670;2022-10-15T16:32:25;20.60;;;12.82;;
73693;SDS011;61997;53.974;11.670;2022-10-15T16:34:50;22.92;;;13.65;;
73693;SDS011;61997;53.974;11.670;2022-10-15T16:37:16;20.92;;;13.23;;
73693;SDS011;61997;53.974;11.670;2022-10-15T16:39:41;22.80;;;14.27;;
73693;SDS011;61997;53.974;11.670;2022-10-15T16:42:07;22.48;;;13.45;;
73693;SDS011;61997;53.974;11.670;2022-10-15T16:44:33;19.48;;;12.80;;
73693;SDS011;61997;53.974;11.670;2022-10-15T16:46:59;21.10;;;12.95;;
73693;SDS011;61997;53.974;11.670;2022-10-15T16:49:26;22.50;;;12.90;;
73693;SDS011;61997;53.974;11.670;2022-10-15T16:51:52;21.88;;;12.95;;
73693;SDS011;61997;53.974;11.670;2022-10-15T16:54:17;18.65;;;12.20;;
73693;SDS011;61997;53.974;11.670;2022-10-15T16:56:45;19.65;;;13.00;;